Alpha, Iowa
Current Conditions -  °F | °C
As of 5:15 AM on Sunday 21 Dec 2014 (Local Time) from KDEH Reporting Station
Moderate Fog Moderate Fog  
Wind Chill: 24°   Ceiling: 200
Heat Index: 32°   Visibility: 0.25mi
Dew Point: 32°   Wind: 10mph
Humidity: 100%   Direction: 150°SSE
Pressure: 30.01"   Gusts: NA
Location:  43.0382°N, 92.0219°W
Report Text: KDEH 211115Z AUTO 15009KT 1/4SM FG OVC002 00/00 A3001 RMK AO2
Loading
Personal Weather Stations






























Interactive Weather Map New forecast layout! Learn more

10-Day Weather Forecast

Advertisements
Track Severe Weather on mobile